Time;durP1;ratioP1;P1;durP2;ratioP2;P2;SDS_P1;SDS_P2;PMS_P1;PMS_P2;Temp;Humidity;BMP_temperature;BMP_pressure;BME280_temperature;BME280_humidity;BME280_pressure;Samples;Min_cycle;Max_cycle;Signal;HPM_P1;HPM_P2
2022/08/09 00:01:28;;;;;;;0.75;0.75;;;;;;;16.54;58.10;99490.25;5148472;27;20038;-81
2022/08/09 00:03:55;;;;;;;5.25;1.10;;;;;;;16.42;59.00;99506.56;5148757;27;20043;-81
2022/08/09 00:06:21;;;;;;;0.88;0.70;;;;;;;16.22;58.37;99476.41;5150479;27;21951;-81
2022/08/09 00:08:50;;;;;;;2.97;0.85;;;;;;;16.32;58.07;99478.72;5154874;27;20061;-81
2022/08/09 00:11:17;;;;;;;1.23;0.70;;;;;;;16.50;58.06;99494.50;5154298;27;20126;-81
2022/08/09 00:13:44;;;;;;;0.88;0.70;;;;;;;16.61;57.90;99498.47;5145799;27;20043;-82
2022/08/09 00:16:11;;;;;;;1.67;1.00;;;;;;;16.51;58.31;99470.66;5153574;27;20129;-81
2022/08/09 00:18:38;;;;;;;1.23;0.90;;;;;;;16.56;58.70;99470.81;5152872;27;20047;-81
2022/08/09 00:21:05;;;;;;;1.15;0.90;;;;;;;16.56;58.77;99498.28;5152548;27;20401;-81
2022/08/09 00:23:33;;;;;;;4.85;0.68;;;;;;;16.48;58.70;99501.25;5153206;27;20038;-82
2022/08/09 00:26:01;;;;;;;1.55;0.75;;;;;;;16.48;59.03;99506.75;5154933;27;20057;-81
2022/08/09 00:28:27;;;;;;;2.72;1.10;;;;;;;16.32;59.60;99506.16;5153789;27;20205;-81
2022/08/09 00:30:55;;;;;;;0.80;0.80;;;;;;;16.33;58.14;99490.53;5154616;27;20126;-81
2022/08/09 00:33:22;;;;;;;1.05;0.82;;;;;;;16.28;58.53;99497.50;5151387;27;20058;-81
2022/08/09 00:35:49;;;;;;;7.60;0.70;;;;;;;16.37;57.61;99495.38;5152890;27;20054;-82
2022/08/09 00:38:15;;;;;;;0.73;0.60;;;;;;;16.13;57.38;99488.66;5153549;27;20137;-82
2022/08/09 00:40:42;;;;;;;3.83;1.00;;;;;;;16.27;58.28;99481.25;5159391;27;20454;-83
2022/08/09 00:43:10;;;;;;;2.30;1.00;;;;;;;16.15;59.17;99477.47;5155042;27;20053;-81
2022/08/09 00:45:37;;;;;;;1.13;0.88;;;;;;;16.12;59.73;99486.97;5153064;27;20039;-81
2022/08/09 00:48:05;;;;;;;3.88;1.08;;;;;;;16.09;60.85;99512.09;5149624;27;20046;-81
2022/08/09 00:50:34;;;;;;;2.17;0.80;;;;;;;15.97;61.06;99497.34;5153127;27;20063;-81
2022/08/09 00:53:01;;;;;;;2.63;0.73;;;;;;;15.96;60.84;99499.25;5153992;27;20042;-81
2022/08/09 00:55:28;;;;;;;2.90;0.85;;;;;;;16.00;60.24;99494.16;5153099;27;20066;-81
2022/08/09 00:57:54;;;;;;;5.25;0.85;;;;;;;16.00;60.21;99489.50;5154607;27;20057;-82
2022/08/09 01:00:23;;;;;;;1.63;0.93;;;;;;;15.85;61.15;99476.06;5149019;27;20038;-82
2022/08/09 01:02:52;;;;;;;1.33;0.70;;;;;;;15.87;61.58;99495.88;5152622;27;20463;-82
2022/08/09 01:05:28;;;;;;;1.35;1.08;;;;;;;15.77;62.70;99498.16;5152898;27;20045;-81
2022/08/09 01:08:02;;;;;;;2.72;1.15;;;;;;;15.68;62.41;99480.22;5152905;27;20405;-81
2022/08/09 01:10:37;;;;;;;1.08;0.82;;;;;;;15.68;63.13;99485.72;5153796;27;20089;-81
2022/08/09 01:13:13;;;;;;;3.50;0.90;;;;;;;15.62;63.29;99494.78;5152326;27;20462;-81
2022/08/09 01:15:45;;;;;;;4.47;0.80;;;;;;;15.50;63.21;99489.91;5153422;27;20045;-82
2022/08/09 01:18:16;;;;;;;2.70;1.33;;;;;;;15.55;61.99;99475.56;5151218;27;20065;-82
2022/08/09 01:20:49;;;;;;;2.60;1.02;;;;;;;15.85;61.01;99508.09;5153734;27;20134;-82
2022/08/09 01:23:31;;;;;;;1.70;1.00;;;;;;;15.77;61.42;99508.28;5150368;27;20074;-81
2022/08/09 01:26:09;;;;;;;1.17;1.00;;;;;;;15.47;62.64;99506.75;5148029;27;20126;-82
2022/08/09 01:28:42;;;;;;;1.83;0.93;;;;;;;15.40;62.45;99495.81;5152145;27;20055;-82
2022/08/09 01:31:12;;;;;;;1.35;0.90;;;;;;;15.47;63.19;99514.97;5152923;27;20050;-82
2022/08/09 01:33:44;;;;;;;1.60;0.80;;;;;;;15.44;63.14;99522.78;5150376;27;20039;-81
2022/08/09 01:36:14;;;;;;;1.63;1.00;;;;;;;15.49;64.76;99529.34;5153393;27;20078;-82
2022/08/09 01:38:45;;;;;;;4.47;0.90;;;;;;;15.48;64.79;99494.75;5151830;27;20573;-82
2022/08/09 01:41:15;;;;;;;1.25;0.80;;;;;;;15.40;64.96;99508.66;5151576;27;20087;-81
2022/08/09 01:43:45;;;;;;;;;;;;;;;15.55;64.90;99535.84;5150515;27;20460;-82
2022/08/09 01:46:14;;;;;;;1.13;0.80;;;;;;;15.38;65.54;99510.75;5150727;27;20358;-81
2022/08/09 01:48:43;;;;;;;0.70;0.70;;;;;;;15.56;64.97;99538.38;5144498;27;20039;-82
2022/08/09 01:51:10;;;;;;;1.23;0.98;;;;;;;15.42;65.23;99503.00;5152635;27;20046;-81
2022/08/09 01:53:39;;;;;;;1.60;1.00;;;;;;;15.24;65.88;99509.91;5151842;27;20062;-82
2022/08/09 01:56:08;;;;;;;1.17;1.00;;;;;;;15.08;66.62;99505.63;5147595;27;20069;-81
2022/08/09 01:58:36;;;;;;;2.28;1.20;;;;;;;15.04;66.73;99504.38;5152989;27;20047;-82
2022/08/09 02:01:05;;;;;;;1.95;0.82;;;;;;;14.82;67.60;99514.59;5150942;27;20471;-81
2022/08/09 02:03:34;;;;;;;0.88;0.88;;;;;;;14.75;68.22;99511.81;5151152;27;20054;-81
2022/08/09 02:06:04;;;;;;;1.23;0.88;;;;;;;15.01;67.33;99552.16;5151890;27;20579;-82
2022/08/09 02:08:35;;;;;;;3.33;0.95;;;;;;;15.00;66.51;99541.41;5152760;27;20408;-81
2022/08/09 02:11:04;;;;;;;1.45;0.68;;;;;;;14.99;67.17;99536.97;5151177;27;20042;-82
2022/08/09 02:13:35;;;;;;;1.30;1.00;;;;;;;14.66;68.19;99538.53;5149034;27;20035;-81
2022/08/09 02:16:05;;;;;;;1.95;1.00;;;;;;;14.55;68.89;99524.53;5152859;27;20122;-82
2022/08/09 02:18:35;;;;;;;4.60;1.08;;;;;;;14.52;68.85;99521.16;5150450;27;20050;-81
2022/08/09 02:21:07;;;;;;;2.97;0.90;;;;;;;14.47;69.17;99522.81;5148138;27;20461;-82
2022/08/09 02:23:39;;;;;;;3.85;1.08;;;;;;;14.39;69.37;99512.88;5148917;27;20047;-81
2022/08/09 02:26:08;;;;;;;1.00;0.90;;;;;;;14.36;69.91;99528.84;5152555;27;20054;-82
2022/08/09 02:28:39;;;;;;;2.58;1.00;;;;;;;14.55;69.00;99544.53;5151771;27;20066;-82
2022/08/09 02:31:12;;;;;;;3.22;1.00;;;;;;;14.63;68.20;99538.06;5152209;27;20110;-81
2022/08/09 02:33:42;;;;;;;1.20;1.10;;;;;;;14.57;69.54;99539.69;5148334;27;20070;-82
2022/08/09 02:36:12;;;;;;;;;;;;;;;14.61;69.69;99543.75;5148169;27;20138;-81
2022/08/09 02:38:47;;;;;;;2.58;1.10;;;;;;;14.46;70.12;99541.09;5152153;27;19922;-82
2022/08/09 02:41:18;;;;;;;3.85;1.00;;;;;;;14.36;70.91;99557.03;5149636;27;20057;-82
2022/08/09 02:43:47;;;;;;;1.40;0.98;;;;;;;14.31;71.01;99559.53;5143796;27;20049;-81
2022/08/09 02:46:18;;;;;;;1.08;0.75;;;;;;;14.39;70.40;99555.78;5149765;27;20102;-82
2022/08/09 02:48:47;;;;;;;1.23;1.02;;;;;;;14.31;71.97;99534.91;5144550;27;20134;-81
2022/08/09 02:51:18;;;;;;;1.42;1.15;;;;;;;14.58;71.79;99562.44;5149925;27;20478;-82
2022/08/09 02:53:50;;;;;;;3.90;1.17;;;;;;;14.52;70.63;99561.34;5148108;27;20492;-82
2022/08/09 02:56:18;;;;;;;3.67;1.10;;;;;;;14.12;71.20;99533.72;5150948;27;20107;-82
2022/08/09 02:58:46;;;;;;;3.83;1.00;;;;;;;14.26;71.50;99537.41;5150875;27;20045;-82
2022/08/09 03:01:17;;;;;;;2.28;1.00;;;;;;;14.16;71.93;99538.59;5151838;27;20046;-82
2022/08/09 03:03:45;;;;;;;0.88;0.82;;;;;;;14.03;72.88;99534.91;5150752;27;20366;-81
2022/08/09 03:06:13;;;;;;;7.13;1.20;;;;;;;13.98;73.24;99550.03;5149422;27;20042;-81
2022/08/09 03:08:43;;;;;;;1.50;1.00;;;;;;;13.81;74.20;99540.41;5145801;27;20069;-81
2022/08/09 03:11:11;;;;;;;1.30;0.90;;;;;;;13.73;74.62;99535.94;5150889;27;20130;-80
2022/08/09 03:13:39;;;;;;;1.77;1.10;;;;;;;13.79;74.49;99545.25;5151086;27;20039;-80
2022/08/09 03:16:06;;;;;;;1.15;0.90;;;;;;;13.88;74.61;99545.94;5151327;27;20058;-80
2022/08/09 03:18:35;;;;;;;3.58;1.00;;;;;;;13.79;75.56;99517.91;5151592;27;20055;-81
2022/08/09 03:21:07;;;;;;;0.98;0.95;;;;;;;13.84;75.71;99539.19;5150275;27;20289;-80
2022/08/09 03:23:34;;;;;;;1.20;0.93;;;;;;;13.80;75.87;99536.00;5148293;27;20497;-80
2022/08/09 03:26:02;;;;;;;1.60;1.20;;;;;;;13.83;75.63;99537.50;5150477;27;20118;-80
2022/08/09 03:28:30;;;;;;;1.10;0.95;;;;;;;13.71;75.85;99531.72;5151600;27;20046;-81
2022/08/09 03:30:58;;;;;;;1.00;0.90;;;;;;;13.70;75.59;99539.06;5151353;27;20051;-80
2022/08/09 03:33:26;;;;;;;1.58;1.33;;;;;;;13.54;74.80;99518.31;5150752;27;20070;-80
2022/08/09 03:35:55;;;;;;;1.85;1.27;;;;;;;13.72;73.60;99533.41;5149787;27;20061;-81
2022/08/09 03:38:21;;;;;;;1.42;1.10;;;;;;;13.65;72.91;99527.88;5149129;27;20039;-80
2022/08/09 03:40:48;;;;;;;3.08;1.20;;;;;;;13.62;74.33;99558.31;5149621;27;20520;-80
2022/08/09 03:43:14;;;;;;;2.05;1.20;;;;;;;13.58;74.98;99567.97;5154744;27;20050;-80
2022/08/09 03:45:41;;;;;;;2.92;1.98;;;;;;;13.45;75.23;99558.56;5157595;27;20047;-80
2022/08/09 03:48:08;;;;;;;1.95;1.25;;;;;;;13.55;75.17;99557.38;5157358;27;20046;-80
2022/08/09 03:50:36;;;;;;;1.38;1.27;;;;;;;13.57;74.37;99555.34;5156631;27;20469;-80
2022/08/09 03:53:08;;;;;;;1.90;1.27;;;;;;;13.76;73.41;99562.88;5153639;27;20133;-80
2022/08/09 03:55:35;;;;;;;2.38;1.25;;;;;;;13.80;73.93;99568.78;5153639;27;20123;-80
2022/08/09 03:58:02;;;;;;;1.42;1.20;;;;;;;13.59;74.36;99553.22;5153906;27;20062;-80
2022/08/09 04:00:30;;;;;;;2.42;1.30;;;;;;;13.47;75.03;99558.38;5154925;27;20074;-80
2022/08/09 04:02:58;;;;;;;1.85;1.23;;;;;;;13.41;75.22;99564.59;5153860;27;20352;-79
2022/08/09 04:05:24;;;;;;;1.73;1.05;;;;;;;13.50;74.26;99566.16;5153582;27;20588;-79
2022/08/09 04:07:51;;;;;;;1.48;1.10;;;;;;;13.61;74.14;99571.13;5154969;27;20417;-79
2022/08/09 04:10:21;;;;;;;2.95;1.23;;;;;;;13.42;74.77;99537.09;5152760;27;20289;-80
2022/08/09 04:12:50;;;;;;;1.88;1.20;;;;;;;13.58;74.08;99560.59;5153533;27;20070;-81
2022/08/09 04:15:18;;;;;;;2.35;1.20;;;;;;;13.44;73.85;99548.69;5149870;27;20039;-80
2022/08/09 04:17:45;;;;;;;3.55;1.52;;;;;;;13.41;75.29;99538.16;5153405;27;20042;-80
2022/08/09 04:20:13;;;;;;;2.70;1.77;;;;;;;13.65;75.64;99582.50;5154842;27;20103;-80
2022/08/09 04:22:40;;;;;;;3.92;1.30;;;;;;;13.60;75.67;99577.63;5152395;27;20507;-80
2022/08/09 04:25:08;;;;;;;1.45;1.30;;;;;;;13.31;77.35;99556.72;5150300;27;20091;-79
2022/08/09 04:27:40;;;;;;;1.20;1.10;;;;;;;13.26;78.96;99550.97;5149963;27;20514;-80
2022/08/09 04:30:09;;;;;;;2.47;1.27;;;;;;;13.68;77.75;99578.53;5150118;27;20080;-80
2022/08/09 04:32:36;;;;;;;4.47;1.23;;;;;;;13.68;76.25;99560.25;5152274;27;20417;-80
2022/08/09 04:35:02;;;;;;;2.72;1.45;;;;;;;13.81;75.77;99578.69;5150970;27;20050;-80
2022/08/09 04:37:29;;;;;;;4.57;1.30;;;;;;;13.92;75.46;99593.69;5154806;27;20053;-80
2022/08/09 04:39:58;;;;;;;2.35;1.60;;;;;;;13.75;76.94;99602.16;5152452;27;20054;-80
2022/08/09 04:42:28;;;;;;;1.55;1.30;;;;;;;13.59;77.02;99583.28;5153501;27;20078;-80
2022/08/09 04:44:56;;;;;;;1.88;1.50;;;;;;;13.73;76.44;99596.06;5150341;27;20043;-80
2022/08/09 04:47:23;;;;;;;4.70;1.63;;;;;;;13.52;77.16;99574.16;5153554;27;20079;-81
2022/08/09 04:49:50;;;;;;;2.15;1.52;;;;;;;13.68;77.20;99594.94;5151761;27;20043;-82
2022/08/09 04:52:17;;;;;;;2.08;1.20;;;;;;;13.83;77.26;99617.56;5152582;27;20416;-80
2022/08/09 04:54:45;;;;;;;1.88;1.20;;;;;;;13.91;76.93;99628.38;5153984;27;20133;-81
2022/08/09 04:57:14;;;;;;;1.42;1.27;;;;;;;13.89;76.31;99618.69;5153284;27;20425;-80
2022/08/09 04:59:40;;;;;;;2.97;1.40;;;;;;;13.94;74.64;99613.47;5153662;27;20114;-82
2022/08/09 05:02:08;;;;;;;2.00;1.27;;;;;;;14.00;74.89;99609.97;5151821;27;20507;-82
2022/08/09 05:04:35;;;;;;;2.08;1.30;;;;;;;13.99;75.49;99621.94;5153435;27;20477;-81
2022/08/09 05:07:02;;;;;;;4.10;1.88;;;;;;;14.08;75.97;99612.56;5152056;27;20137;-80
2022/08/09 05:09:30;;;;;;;4.50;1.38;;;;;;;14.21;77.08;99632.84;5152915;27;20568;-83
2022/08/09 05:11:57;;;;;;;1.95;1.45;;;;;;;14.17;77.82;99637.88;5149797;27;20099;-81
2022/08/09 05:14:23;;;;;;;2.30;1.48;;;;;;;14.18;78.80;99642.28;5153384;27;20047;-81
2022/08/09 05:16:51;;;;;;;2.90;1.30;;;;;;;14.11;79.30;99614.06;5152493;27;20125;-81
2022/08/09 05:19:20;;;;;;;3.33;1.60;;;;;;;14.16;79.91;99637.00;5154317;27;20131;-81
2022/08/09 05:21:48;;;;;;;1.58;1.27;;;;;;;14.33;78.61;99634.88;5152428;27;20462;-81
2022/08/09 05:24:15;;;;;;;3.80;1.23;;;;;;;14.28;78.06;99611.88;5153374;27;20047;-81
2022/08/09 05:26:42;;;;;;;3.00;1.35;;;;;;;14.36;78.64;99630.03;5152944;27;20046;-81
2022/08/09 05:29:10;;;;;;;3.30;1.25;;;;;;;14.47;78.48;99633.06;5154134;27;20106;-81
2022/08/09 05:31:36;;;;;;;2.63;1.60;;;;;;;14.82;75.32;99633.13;5152200;27;20513;-81
2022/08/09 05:34:03;;;;;;;2.85;1.65;;;;;;;15.27;73.94;99646.41;5148860;27;20046;-81
2022/08/09 05:36:31;;;;;;;2.13;1.40;;;;;;;15.34;71.82;99638.22;5153587;27;20055;-81
2022/08/09 05:38:58;;;;;;;2.40;1.25;;;;;;;15.65;70.65;99645.94;5152359;27;20043;-81
2022/08/09 05:41:24;;;;;;;1.42;1.30;;;;;;;15.94;69.86;99649.41;5152028;27;20466;-81
2022/08/09 05:43:51;;;;;;;3.75;1.55;;;;;;;15.92;68.99;99621.34;5150863;27;20039;-81
2022/08/09 05:46:18;;;;;;;2.38;1.60;;;;;;;16.23;67.76;99626.22;5152514;27;20435;-81
2022/08/09 05:48:45;;;;;;;3.08;1.50;;;;;;;16.69;66.08;99646.47;5150885;27;20171;-81
2022/08/09 05:51:11;;;;;;;2.97;1.67;;;;;;;16.90;64.22;99628.09;5150957;27;20468;-81
2022/08/09 05:53:40;;;;;;;3.17;1.60;;;;;;;17.44;62.63;99651.56;5151553;27;20385;-81
2022/08/09 05:56:07;;;;;;;2.65;1.33;;;;;;;17.73;61.13;99659.47;5151808;27;20047;-81
2022/08/09 05:58:34;;;;;;;5.28;1.48;;;;;;;17.88;60.00;99657.28;5151167;27;20139;-81
2022/08/09 06:01:00;;;;;;;2.95;1.45;;;;;;;18.00;59.02;99657.44;5151509;27;20047;-81
2022/08/09 06:03:27;;;;;;;6.20;1.60;;;;;;;18.11;57.43;99632.00;5152254;27;20074;-81
2022/08/09 06:05:55;;;;;;;3.50;1.42;;;;;;;18.51;56.13;99655.59;5148409;27;20050;-81
2022/08/09 06:08:22;;;;;;;3.30;1.45;;;;;;;18.71;54.96;99648.00;5151641;27;20137;-81
2022/08/09 06:10:50;;;;;;;3.53;1.70;;;;;;;19.01;53.50;99629.91;5152795;27;20257;-81
2022/08/09 06:13:17;;;;;;;2.17;1.40;;;;;;;19.47;52.55;99650.56;5153454;27;20072;-81
2022/08/09 06:15:43;;;;;;;5.30;1.60;;;;;;;19.63;51.13;99630.63;5155015;27;20060;-81
2022/08/09 06:18:12;;;;;;;2.42;1.80;;;;;;;20.09;50.19;99647.63;5149159;27;20043;-81
2022/08/09 06:20:40;;;;;;;6.60;1.30;;;;;;;20.11;49.29;99645.47;5148991;27;20062;-81
2022/08/09 06:23:07;;;;;;;2.42;1.60;;;;;;;20.48;48.42;99645.28;5152583;27;20073;-81
2022/08/09 06:25:33;;;;;;;2.67;1.30;;;;;;;20.55;47.72;99634.16;5140278;27;20049;-81
2022/08/09 06:28:01;;;;;;;2.72;1.35;;;;;;;20.82;47.27;99648.34;5153735;27;20436;-81
2022/08/09 06:30:28;;;;;;;2.72;1.40;;;;;;;20.84;46.78;99637.06;5148838;27;20043;-81
2022/08/09 06:32:55;;;;;;;2.03;0.90;;;;;;;21.48;45.69;99645.38;5148830;27;20039;-81
2022/08/09 06:35:21;;;;;;;6.07;1.23;;;;;;;21.59;45.43;99635.38;5151251;27;20070;-81
2022/08/09 06:37:48;;;;;;;2.67;1.40;;;;;;;22.12;44.90;99662.94;5152548;27;20047;-81
2022/08/09 06:40:14;;;;;;;8.80;1.20;;;;;;;22.39;44.43;99663.19;5150859;27;20049;-81
2022/08/09 06:42:43;;;;;;;5.30;1.40;;;;;;;22.26;43.87;99670.66;5145075;27;20046;-81
2022/08/09 06:45:12;;;;;;;1.30;1.20;;;;;;;22.17;44.01;99638.09;5152409;27;20050;-81
2022/08/09 06:47:38;;;;;;;2.70;1.20;;;;;;;22.71;42.88;99648.72;5154211;27;20124;-80
2022/08/09 06:50:06;;;;;;;2.13;1.30;;;;;;;23.03;41.79;99648.09;5155991;27;20078;-81
2022/08/09 06:52:33;;;;;;;2.65;1.08;;;;;;;23.50;41.30;99659.59;5153084;27;20047;-81
2022/08/09 06:54:59;;;;;;;4.18;1.38;;;;;;;23.67;40.70;99644.81;5153047;27;20045;-78
2022/08/09 06:57:26;;;;;;;2.08;1.30;;;;;;;23.45;41.05;99645.63;5138575;27;20062;-79
2022/08/09 06:59:53;;;;;;;3.00;1.13;;;;;;;23.69;41.03;99660.06;5133465;28;20047;-79
2022/08/09 07:02:21;;;;;;;4.32;1.20;;;;;;;24.03;40.31;99650.78;5144742;27;20081;-79
2022/08/09 07:04:47;;;;;;;3.50;1.10;;;;;;;24.38;39.51;99644.69;5148961;27;20034;-79
2022/08/09 07:07:15;;;;;;;6.53;2.90;;;;;;;24.34;39.39;99648.28;5150018;27;20100;-79
2022/08/09 07:09:43;;;;;;;3.92;1.40;;;;;;;24.27;39.57;99667.94;5143758;27;20070;-79
2022/08/09 07:12:10;;;;;;;4.28;1.10;;;;;;;24.66;38.78;99666.91;5149810;27;20125;-79
2022/08/09 07:14:37;;;;;;;1.70;1.00;;;;;;;24.75;38.94;99651.44;5151746;27;20046;-79
2022/08/09 07:17:04;;;;;;;2.78;1.08;;;;;;;24.90;38.68;99643.19;5150796;27;20053;-80
2022/08/09 07:19:32;;;;;;;3.05;1.10;;;;;;;25.06;38.87;99669.13;5154164;27;20391;-79
2022/08/09 07:21:58;;;;;;;1.45;1.10;;;;;;;25.14;38.50;99662.25;5153441;27;20132;-79
2022/08/09 07:24:26;;;;;;;3.90;1.42;;;;;;;24.94;38.35;99670.47;5150397;27;20058;-79
2022/08/09 07:26:52;;;;;;;4.15;1.33;;;;;;;25.24;38.12;99667.03;5155616;27;20575;-79
2022/08/09 07:29:19;;;;;;;6.55;1.35;;;;;;;25.63;37.42;99665.84;5155523;27;20099;-79
2022/08/09 07:31:45;;;;;;;1.55;1.23;;;;;;;25.79;37.22;99664.81;5154369;27;20661;-79
2022/08/09 07:34:12;;;;;;;3.60;1.05;;;;;;;25.95;37.14;99674.88;5153300;27;20054;-79
2022/08/09 07:36:40;;;;;;;1.00;0.90;;;;;;;26.13;36.60;99664.34;5153584;27;20474;-79
2022/08/09 07:39:07;;;;;;;1.55;0.90;;;;;;;26.29;36.30;99687.50;5153777;27;20043;-79
2022/08/09 07:41:33;;;;;;;2.38;1.27;;;;;;;26.16;36.52;99676.91;5155799;27;20428;-80
2022/08/09 07:44:00;;;;;;;2.05;0.98;;;;;;;25.71;37.16;99674.50;5152780;27;20117;-79
2022/08/09 07:46:27;;;;;;;2.10;1.20;;;;;;;25.84;35.90;99681.50;5153667;27;20437;-79
2022/08/09 07:48:53;;;;;;;1.85;1.10;;;;;;;25.71;36.72;99665.31;5158336;27;20047;-79
2022/08/09 07:51:20;;;;;;;2.58;1.35;;;;;;;25.76;36.55;99682.88;5151783;27;20039;-79
2022/08/09 07:53:50;;;;;;;1.98;1.10;;;;;;;25.94;36.23;99677.91;5154853;27;20787;-79
2022/08/09 07:56:17;;;;;;;6.50;1.30;;;;;;;25.82;37.01;99689.31;5155555;27;20051;-81
2022/08/09 07:58:44;;;;;;;3.33;1.75;;;;;;;26.16;36.45;99688.03;5152607;27;20050;-81
2022/08/09 08:01:11;;;;;;;1.92;1.10;;;;;;;25.90;35.86;99663.69;5153809;27;20046;-81
2022/08/09 08:03:38;;;;;;;2.35;1.23;;;;;;;26.01;36.41;99691.63;5155090;27;20115;-80
2022/08/09 08:06:05;;;;;;;4.25;1.40;;;;;;;26.05;36.98;99688.00;5155410;27;20058;-81
2022/08/09 08:08:32;;;;;;;1.65;1.10;;;;;;;26.04;35.57;99677.97;5155445;27;20137;-80
2022/08/09 08:11:00;;;;;;;1.17;0.98;;;;;;;26.02;35.60;99668.22;5149080;27;20036;-80
2022/08/09 08:13:27;;;;;;;2.97;1.20;;;;;;;26.21;36.35;99683.31;5153850;27;20049;-80
2022/08/09 08:15:53;;;;;;;1.27;1.15;;;;;;;26.24;35.37;99667.97;5150141;27;20122;-80
2022/08/09 08:18:20;;;;;;;5.28;1.52;;;;;;;26.25;35.73;99683.59;5153629;27;20034;-79
2022/08/09 08:20:46;;;;;;;1.50;1.10;;;;;;;26.48;34.97;99677.50;5156689;27;20474;-80
2022/08/09 08:23:15;;;;;;;2.17;1.10;;;;;;;26.54;35.17;99691.41;5154029;27;20043;-80
2022/08/09 08:25:43;;;;;;;1.20;1.10;;;;;;;26.75;35.27;99686.72;5154041;27;20054;-80
2022/08/09 08:28:10;;;;;;;2.78;1.30;;;;;;;26.72;35.05;99673.31;5152550;27;20375;-80
2022/08/09 08:30:37;;;;;;;4.07;1.25;;;;;;;26.29;34.87;99687.50;5151840;27;20038;-80
2022/08/09 08:33:04;;;;;;;2.53;1.02;;;;;;;26.29;36.08;99665.22;5153629;27;20055;-78
2022/08/09 08:35:31;;;;;;;3.42;1.10;;;;;;;26.44;35.80;99670.78;5150953;27;20184;-80
2022/08/09 08:37:57;;;;;;;3.83;1.00;;;;;;;26.77;35.72;99684.50;5152107;27;20042;-80
2022/08/09 08:40:24;;;;;;;1.17;1.05;;;;;;;26.90;33.93;99683.06;5153262;27;20046;-80
2022/08/09 08:42:52;;;;;;;1.17;0.93;;;;;;;26.83;34.89;99678.63;5152606;27;20046;-78
2022/08/09 08:45:27;;;;;;;1.25;1.05;;;;;;;26.75;35.15;99672.75;5154359;27;20051;-80
2022/08/09 08:47:53;;;;;;;1.13;0.93;;;;;;;26.69;34.62;99669.13;5154032;27;20439;-82
2022/08/09 08:50:20;;;;;;;2.10;1.20;;;;;;;26.82;34.38;99676.13;5146650;27;20404;-81
2022/08/09 08:52:48;;;;;;;2.63;1.23;;;;;;;27.02;34.75;99673.31;5154761;27;20115;-81
2022/08/09 08:55:15;;;;;;;2.72;1.00;;;;;;;26.94;34.08;99668.28;5148912;27;20472;-81
2022/08/09 08:57:42;;;;;;;3.95;1.20;;;;;;;26.97;34.23;99680.84;5154020;27;20043;-81
2022/08/09 09:00:10;;;;;;;1.30;1.20;;;;;;;27.23;34.14;99670.44;5133206;27;20494;-81
2022/08/09 09:02:38;;;;;;;3.97;1.30;;;;;;;27.16;34.01;99678.31;5132698;27;20039;-81
2022/08/09 09:05:05;;;;;;;1.27;1.15;;;;;;;27.00;34.93;99664.38;5133380;27;20051;-79
2022/08/09 09:07:33;;;;;;;2.72;1.10;;;;;;;27.06;33.69;99690.31;5144802;27;20046;-79
2022/08/09 09:10:06;;;;;;;2.95;1.10;;;;;;;26.91;33.49;99665.22;5154067;27;20037;-79
2022/08/09 09:12:33;;;;;;;1.25;1.05;;;;;;;26.94;32.95;99671.06;5154073;27;20401;-79
2022/08/09 09:15:00;;;;;;;7.55;1.52;;;;;;;27.00;33.02;99697.00;5153940;27;20046;-79
2022/08/09 09:17:27;;;;;;;2.28;0.88;;;;;;;26.87;31.94;99676.09;5152689;27;20129;-78
2022/08/09 09:19:55;;;;;;;3.63;1.27;;;;;;;26.96;32.65;99684.75;5149166;27;21277;-79
2022/08/09 09:22:22;;;;;;;10.52;1.20;;;;;;;27.25;33.19;99668.22;5146749;27;20551;-80
2022/08/09 09:24:50;;;;;;;1.73;1.15;;;;;;;27.20;31.69;99651.47;5150225;27;20047;-81
2022/08/09 09:27:19;;;;;;;1.60;0.90;;;;;;;27.48;32.36;99683.53;5148779;27;20058;-79
2022/08/09 09:29:47;;;;;;;7.60;1.33;;;;;;;27.46;32.62;99673.75;5140585;27;20482;-78
2022/08/09 09:32:19;;;;;;;6.85;1.13;;;;;;;27.52;31.64;99675.41;5147109;27;20049;-78
2022/08/09 09:35:04;;;;;;;7.10;1.23;;;;;;;27.35;32.23;99665.41;5153334;27;20039;-78
2022/08/09 09:37:31;;;;;;;1.55;1.25;;;;;;;27.36;31.46;99655.09;5145204;27;20069;-79
2022/08/09 09:39:57;;;;;;;3.38;1.50;;;;;;;27.32;31.70;99679.06;5149928;27;20049;-81
2022/08/09 09:42:26;;;;;;;5.43;1.23;;;;;;;27.47;31.84;99676.25;5150422;27;20051;-79
2022/08/09 09:44:58;;;;;;;3.70;1.15;;;;;;;27.29;30.74;99643.38;5152987;27;20498;-79
2022/08/09 09:47:27;;;;;;;2.42;1.10;;;;;;;27.32;32.09;99659.53;5150368;27;20050;-78
2022/08/09 09:49:55;;;;;;;1.20;1.10;;;;;;;27.52;31.22;99651.13;5142369;27;20075;-78
2022/08/09 09:52:25;;;;;;;4.57;1.10;;;;;;;27.30;31.27;99667.38;5149370;27;20137;-79
2022/08/09 09:55:00;;;;;;;9.57;1.40;;;;;;;27.18;31.57;99673.25;5149493;27;20513;-78
2022/08/09 09:57:26;;;;;;;4.32;1.33;;;;;;;27.17;31.96;99658.47;5148500;27;20065;-78
2022/08/09 09:59:54;;;;;;;1.98;1.20;;;;;;;27.25;31.68;99642.25;5151129;27;20359;-78
2022/08/09 10:02:24;;;;;;;1.92;1.20;;;;;;;27.59;31.27;99656.41;5151973;27;20489;-79
2022/08/09 10:05:02;;;;;;;;;;;;;;;27.76;31.43;99669.16;5152097;27;20470;-79
2022/08/09 10:07:30;;;;;;;2.28;1.20;;;;;;;27.79;31.68;99668.59;5149229;27;19923;-79
2022/08/09 10:09:58;;;;;;;3.58;0.90;;;;;;;28.08;31.27;99660.38;5148704;27;20076;-79
2022/08/09 10:12:29;;;;;;;1.75;1.20;;;;;;;28.08;30.96;99660.38;5146799;27;20448;-79
2022/08/09 10:15:10;;;;;;;1.98;1.20;;;;;;;28.01;30.56;99637.50;5149157;27;20070;-79
2022/08/09 10:17:39;;;;;;;2.90;1.30;;;;;;;27.87;30.81;99624.13;5149090;27;20046;-79
2022/08/09 10:20:26;;;;;;;2.92;1.13;;;;;;;27.82;30.31;99649.31;5152291;27;20523;-79
2022/08/09 10:22:59;;;;;;;2.42;1.40;;;;;;;27.68;30.87;99639.88;5145187;27;20446;-80
2022/08/09 10:25:26;;;;;;;3.00;1.20;;;;;;;27.95;29.56;99635.81;5148244;27;20046;-80
2022/08/09 10:27:53;;;;;;;1.65;1.20;;;;;;;28.15;29.56;99643.25;5146044;27;20127;-81
2022/08/09 10:30:21;;;;;;;1.55;1.00;;;;;;;28.19;29.41;99653.56;5150258;27;20507;-80
2022/08/09 10:32:48;;;;;;;6.60;1.63;;;;;;;28.29;29.91;99637.84;5132499;27;20055;-80
2022/08/09 10:35:15;;;;;;;4.93;1.30;;;;;;;28.20;29.31;99630.09;5148039;27;20046;-80
2022/08/09 10:37:44;;;;;;;2.25;1.38;;;;;;;28.43;28.93;99634.09;5154529;27;20433;-80
2022/08/09 10:40:13;;;;;;;2.13;1.63;;;;;;;28.52;28.65;99625.09;5155583;27;20038;-80
2022/08/09 10:42:39;;;;;;;1.30;1.08;;;;;;;28.56;28.94;99604.63;5148141;27;20313;-80
2022/08/09 10:45:09;;;;;;;5.45;1.45;;;;;;;28.76;29.17;99627.97;5148905;27;20047;-80
2022/08/09 10:47:48;;;;;;;3.17;1.33;;;;;;;28.87;27.81;99628.69;5150070;27;20081;-80
2022/08/09 10:50:23;;;;;;;3.50;1.08;;;;;;;29.00;28.64;99625.22;5148059;27;20058;-80
2022/08/09 10:53:05;;;;;;;3.88;0.95;;;;;;;29.20;27.34;99607.34;5148665;27;20049;-80
2022/08/09 10:55:35;;;;;;;4.70;1.13;;;;;;;29.38;26.46;99607.72;5147685;27;20096;-80
2022/08/09 10:58:03;;;;;;;7.32;1.50;;;;;;;29.27;26.94;99602.25;5145080;27;20058;-81
2022/08/09 11:00:43;;;;;;;1.80;1.20;;;;;;;29.19;26.63;99619.69;5145431;27;20058;-80
2022/08/09 11:03:21;;;;;;;2.78;1.23;;;;;;;29.32;26.08;99618.16;5146099;27;20114;-81
2022/08/09 11:06:24;;;;;;;2.20;1.23;;;;;;;29.03;26.02;99623.78;5141063;27;20142;-81
2022/08/09 11:08:51;;;;;;;1.55;0.90;;;;;;;29.24;26.96;99636.44;5145519;27;20053;-82
2022/08/09 11:11:20;;;;;;;10.57;1.58;;;;;;;29.08;26.72;99609.72;5152081;27;20043;-81
2022/08/09 11:14:07;;;;;;;1.20;0.82;;;;;;;29.52;26.76;99619.84;5147291;27;20046;-82
2022/08/09 11:16:38;;;;;;;3.65;1.20;;;;;;;29.39;26.67;99604.63;5149985;27;20049;-83
2022/08/09 11:19:07;;;;;;;1.45;1.00;;;;;;;29.55;26.67;99619.25;5149821;27;20477;-82
2022/08/09 11:21:53;;;;;;;1.30;1.10;;;;;;;29.57;27.08;99613.34;5145805;27;20078;-83
2022/08/09 11:24:21;;;;;;;2.65;1.10;;;;;;;29.29;26.52;99605.56;5154529;27;20113;-83
2022/08/09 11:26:51;;;;;;;1.33;0.93;;;;;;;29.69;26.43;99594.16;5151760;27;20079;-83
2022/08/09 11:29:52;;;;;;;1.60;1.13;;;;;;;30.18;25.52;99620.06;5149941;27;20137;-83
2022/08/09 11:32:44;;;;;;;2.40;1.20;;;;;;;29.81;25.63;99613.34;5149015;27;20074;-83
2022/08/09 11:35:17;;;;;;;1.77;1.20;;;;;;;29.79;25.49;99599.59;5142556;27;20050;-83
2022/08/09 11:37:45;;;;;;;3.58;1.00;;;;;;;29.97;24.80;99594.31;5144136;27;20039;-83
2022/08/09 11:40:13;;;;;;;4.03;1.17;;;;;;;29.91;24.77;99590.75;5138128;27;20138;-83
2022/08/09 11:42:47;;;;;;;2.60;1.05;;;;;;;29.50;24.50;99601.69;5140908;27;20072;-84